createdAt,value
2018-11-12T00:00:36.077Z,80.9
2018-11-12T00:01:36.104Z,80.65
2018-11-12T00:02:36.113Z,80.8
2018-11-12T00:03:36.142Z,80.84
2018-11-12T00:04:36.157Z,80.9
2018-11-12T00:05:36.447Z,80.8
2018-11-12T00:06:36.203Z,80.74
2018-11-12T00:07:36.488Z,80.7
2018-11-12T00:08:36.514Z,80.8
2018-11-12T00:09:36.272Z,80.7
2018-11-12T00:10:36.554Z,80.8
2018-11-12T00:11:36.582Z,80.61
2018-11-12T00:12:36.600Z,80.74
2018-11-12T00:13:36.622Z,80.9
2018-11-12T00:14:36.380Z,80.8
2018-11-12T00:15:36.674Z,80.8
2018-11-12T00:16:36.426Z,80.9
2018-11-12T00:17:36.444Z,80.99
2018-11-12T00:18:36.742Z,80.8
2018-11-12T00:19:36.760Z,80.9
2018-11-12T00:20:36.513Z,80.9
2018-11-12T00:21:36.531Z,80.99
2018-11-12T00:22:36.555Z,80.9
2018-11-12T00:23:36.578Z,80.99
2018-11-12T00:24:36.601Z,81.03
2018-11-12T00:25:36.630Z,80.99
2018-11-12T00:26:36.647Z,80.8
2018-11-12T00:27:36.673Z,80.8
2018-11-12T00:28:36.689Z,81.18
2018-11-12T00:29:36.712Z,80.8
2018-11-12T00:30:37.000Z,80.7
2018-11-12T00:31:36.763Z,80.7
2018-11-12T00:32:37.046Z,80.8
2018-11-12T00:33:36.797Z,80.8
2018-11-12T00:34:37.087Z,80.8
2018-11-12T00:35:36.854Z,80.7
2018-11-12T00:36:36.869Z,80.8
2018-11-12T00:37:36.886Z,80.9
2018-11-12T00:38:36.908Z,80.8
2018-11-12T00:39:36.930Z,80.8
2018-11-12T00:40:36.966Z,80.7
2018-11-12T00:41:36.977Z,80.9
2018-11-12T00:42:37.010Z,80.9
2018-11-12T00:43:37.286Z,80.8
2018-11-12T00:44:37.309Z,80.51
2018-11-12T00:45:37.334Z,80.9
2018-11-12T00:46:37.085Z,80.51
2018-11-12T00:47:37.381Z,80.8
2018-11-12T00:48:37.407Z,80.61
2018-11-12T00:49:37.156Z,80.7
2018-11-12T00:50:37.179Z,80.51
2018-11-12T00:51:37.195Z,80.8
2018-11-12T00:52:37.226Z,80.61
2018-11-12T00:53:37.243Z,80.51
2018-11-12T00:54:37.530Z,80.8
2018-11-12T00:55:37.298Z,80.8
2018-11-12T00:56:37.573Z,80.8
2018-11-12T00:57:37.625Z,80.8
2018-11-12T00:58:37.627Z,80.8
2018-11-12T00:59:37.381Z,80.8
2018-11-12T01:00:37.662Z,80.41
2018-11-12T01:01:37.684Z,80.8
2018-11-12T01:02:37.443Z,80.99
2018-11-12T01:03:37.473Z,80.8
2018-11-12T01:04:37.484Z,80.8
2018-11-12T01:05:37.512Z,80.41
2018-11-12T01:06:37.531Z,80.8
2018-11-12T01:07:37.559Z,80.8
2018-11-12T01:08:37.835Z,80.32
2018-11-12T01:09:37.862Z,80.99
2018-11-12T01:10:37.885Z,80.99
2018-11-12T01:11:37.641Z,81.09
2018-11-12T01:12:37.660Z,80.41
2018-11-12T01:13:37.682Z,80.8
2018-11-12T01:14:37.705Z,80.8
2018-11-12T01:15:37.729Z,80.99
2018-11-12T01:16:37.752Z,80.9
2018-11-12T01:17:37.781Z,80.8
2018-11-12T01:18:37.793Z,80.61
2018-11-12T01:19:38.080Z,80.51
2018-11-12T01:20:37.847Z,80.51
2018-11-12T01:21:38.129Z,81.09
2018-11-12T01:22:38.148Z,80.41
2018-11-12T01:23:37.913Z,80.65
2018-11-12T01:24:37.926Z,80.51
2018-11-12T01:25:37.950Z,80.41
2018-11-12T01:26:38.237Z,80.51
2018-11-12T01:27:37.997Z,80.41
2018-11-12T01:28:38.020Z,80.41
2018-11-12T01:29:38.046Z,80.32
2018-11-12T01:30:38.063Z,80.8
2018-11-12T01:31:38.090Z,80.8
2018-11-12T01:32:38.104Z,80.8
2018-11-12T01:33:38.125Z,80.8
2018-11-12T01:34:38.150Z,80.41
2018-11-12T01:35:38.435Z,80.61
2018-11-12T01:36:38.509Z,80.99
2018-11-12T01:37:38.480Z,80.9
2018-11-12T01:38:38.505Z,80.8
2018-11-12T01:39:38.541Z,80.41
2018-11-12T01:40:38.546Z,80.51
2018-11-12T01:41:38.304Z,80.61
2018-11-12T01:42:38.596Z,80.61
2018-11-12T01:43:38.621Z,80.61
2018-11-12T01:44:38.370Z,81.09
2018-11-12T01:45:38.392Z,80.51
2018-11-12T01:46:38.416Z,80.61
2018-11-12T01:47:38.714Z,80.61
2018-11-12T01:48:38.457Z,80.61
2018-11-12T01:49:38.485Z,80.51
2018-11-12T01:50:38.507Z,80.51
2018-11-12T01:51:38.525Z,80.8
2018-11-12T01:52:38.553Z,80.61
2018-11-12T01:53:38.842Z,81.09
2018-11-12T01:54:38.857Z,80.7
2018-11-12T01:55:38.883Z,81.27
2018-11-12T01:56:38.635Z,80.99
2018-11-12T01:57:38.665Z,81.27
2018-11-12T01:58:38.687Z,80.99
2018-11-12T01:59:38.967Z,81.27
2018-11-12T02:00:38.735Z,80.99
2018-11-12T02:01:38.787Z,80.99
2018-11-12T02:02:39.035Z,81.37
2018-11-12T02:03:38.789Z,81.09
2018-11-12T02:04:39.170Z,81.18
2018-11-12T02:05:38.840Z,81.27
2018-11-12T02:06:38.859Z,81.27
2018-11-12T02:07:38.885Z,81.18
2018-11-12T02:08:38.943Z,81.27
2018-11-12T02:09:38.923Z,81.27
2018-11-12T02:10:38.956Z,81.18
2018-11-12T02:11:39.239Z,81.09
2018-11-12T02:12:39.002Z,81.18
2018-11-12T02:13:39.288Z,81.09
2018-11-12T02:14:39.071Z,81.18
2018-11-12T02:15:39.334Z,81.09
2018-11-12T02:16:39.078Z,81.09
2018-11-12T02:17:39.100Z,81.09
2018-11-12T02:18:39.128Z,81.18
2018-11-12T02:19:39.413Z,81.27
2018-11-12T02:20:39.433Z,81.09
2018-11-12T02:21:39.567Z,81.09
2018-11-12T02:22:39.484Z,81.09
2018-11-12T02:23:39.237Z,81.18
2018-11-12T02:24:39.252Z,81.09
2018-11-12T02:25:39.284Z,81.27
2018-11-12T02:26:39.297Z,81.18
2018-11-12T02:27:39.321Z,80.99
2018-11-12T02:28:39.343Z,81.27
2018-11-12T02:29:39.635Z,81.18
2018-11-12T02:30:39.389Z,81.09
2018-11-12T02:31:39.683Z,81.18
2018-11-12T02:32:39.695Z,81.18
2018-11-12T02:33:39.455Z,81.09
2018-11-12T02:34:39.474Z,81.18
2018-11-12T02:35:39.776Z,81.09
2018-11-12T02:36:39.797Z,81.09
2018-11-12T02:37:39.551Z,81.09
2018-11-12T02:38:39.577Z,81.18
2018-11-12T02:39:39.854Z,81.27
2018-11-12T02:40:39.871Z,81.09
2018-11-12T02:41:39.903Z,81.18
2018-11-12T02:42:39.929Z,81.18
2018-11-12T02:43:39.956Z,81.09
2018-11-12T02:44:39.982Z,81.27
2018-11-12T02:45:39.996Z,81.18
2018-11-12T02:46:40.017Z,81.18
2018-11-12T02:47:39.773Z,81.27
2018-11-12T02:48:39.785Z,81.27
2018-11-12T02:49:39.806Z,80.99
2018-11-12T02:50:40.093Z,80.99
2018-11-12T02:51:40.143Z,80.99
2018-11-12T02:52:39.870Z,81.09
2018-11-12T02:53:40.165Z,81.27
2018-11-12T02:54:40.184Z,81.27
2018-11-12T02:55:39.939Z,81.18
2018-11-12T02:56:40.253Z,81.18
2018-11-12T02:57:40.549Z,81.27
2018-11-12T02:58:40.282Z,81.18
2018-11-12T02:59:40.034Z,80.99
2018-11-12T03:00:40.318Z,81.09
2018-11-12T03:01:40.091Z,80.61
2018-11-12T03:02:40.369Z,80.99
2018-11-12T03:03:40.398Z,80.99
2018-11-12T03:04:40.140Z,81.18
2018-11-12T03:05:40.435Z,81.18
2018-11-12T03:06:40.451Z,80.99
2018-11-12T03:07:40.228Z,81.27
2018-11-12T03:08:40.511Z,80.8
2018-11-12T03:09:40.531Z,81.18
2018-11-12T03:10:40.270Z,80.99
2018-11-12T03:11:40.571Z,80.99
2018-11-12T03:12:40.594Z,81.09
2018-11-12T03:13:40.338Z,80.99
2018-11-12T03:14:40.361Z,80.99
2018-11-12T03:15:40.646Z,81.09
2018-11-12T03:16:40.678Z,81.09
2018-11-12T03:17:40.439Z,80.9
2018-11-12T03:18:40.715Z,81.09
2018-11-12T03:19:40.754Z,81.18
2018-11-12T03:20:40.495Z,81.09
2018-11-12T03:21:40.781Z,81.09
2018-11-12T03:22:40.543Z,81.09
2018-11-12T03:23:40.825Z,81.27
2018-11-12T03:24:40.581Z,81.18
2018-11-12T03:25:40.604Z,81.18
2018-11-12T03:26:40.633Z,81.09
2018-11-12T03:27:40.696Z,81.09
2018-11-12T03:28:40.676Z,81.09
2018-11-12T03:29:40.958Z,81.09
2018-11-12T03:30:40.715Z,81.09
2018-11-12T03:31:41.010Z,81.18
2018-11-12T03:32:41.039Z,81.18
2018-11-12T03:33:40.792Z,80.99
2018-11-12T03:34:40.806Z,81.18
2018-11-12T03:35:40.824Z,80.99
2018-11-12T03:36:40.847Z,81.27
2018-11-12T03:37:41.136Z,81.09
2018-11-12T03:38:41.154Z,80.99
2018-11-12T03:39:41.357Z,81.18
2018-11-12T03:40:41.202Z,81.18
2018-11-12T03:41:41.223Z,81.18
2018-11-12T03:42:40.983Z,81.09
2018-11-12T03:43:41.005Z,81.09
2018-11-12T03:44:41.032Z,81.18
2018-11-12T03:45:41.315Z,80.99
2018-11-12T03:46:41.068Z,81.18
2018-11-12T03:47:41.359Z,80.99
2018-11-12T03:48:41.389Z,81.18
2018-11-12T03:49:41.130Z,80.99
2018-11-12T03:50:41.165Z,81.27
2018-11-12T03:51:41.179Z,81.18
2018-11-12T03:52:41.207Z,81.27
2018-11-12T03:53:41.225Z,80.7
2018-11-12T03:54:41.515Z,81.27
2018-11-12T03:55:41.533Z,81.18
2018-11-12T03:56:41.561Z,80.99
2018-11-12T03:57:41.310Z,81.18
2018-11-12T03:58:41.334Z,80.99
2018-11-12T03:59:41.355Z,80.7
2018-11-12T04:00:41.661Z,80.9
2018-11-12T04:01:41.667Z,80.99
2018-11-12T04:02:41.690Z,81.37
2018-11-12T04:03:41.707Z,80.7
2018-11-12T04:04:41.745Z,80.99
2018-11-12T04:05:41.488Z,80.99
2018-11-12T04:06:41.520Z,80.99
2018-11-12T04:07:41.800Z,81.18
2018-11-12T04:08:41.819Z,81.09
2018-11-12T04:09:41.854Z,81.18
2018-11-12T04:10:41.880Z,80.99
2018-11-12T04:11:41.625Z,81.18
2018-11-12T04:12:41.911Z,80.99
2018-11-12T04:13:41.660Z,80.99
2018-11-12T04:14:41.686Z,81.37
2018-11-12T04:15:41.713Z,81.18
2018-11-12T04:16:41.733Z,81.09
2018-11-12T04:17:42.025Z,81.18
2018-11-12T04:18:42.040Z,81.18
2018-11-12T04:19:41.797Z,81.27
2018-11-12T04:20:41.822Z,81.09
2018-11-12T04:21:41.846Z,81.18
2018-11-12T04:22:42.129Z,81.09
2018-11-12T04:23:42.152Z,81.18
2018-11-12T04:24:41.908Z,81.09
2018-11-12T04:25:42.207Z,81.09
2018-11-12T04:26:41.955Z,81.27
2018-11-12T04:27:42.249Z,81.09
2018-11-12T04:28:42.267Z,81.18
2018-11-12T04:29:42.015Z,81.27
2018-11-12T04:30:42.041Z,81.09
2018-11-12T04:31:42.058Z,81.18
2018-11-12T04:32:42.347Z,81.09
2018-11-12T04:33:42.100Z,80.99
2018-11-12T04:34:42.127Z,81.18
2018-11-12T04:35:42.162Z,80.7
2018-11-12T04:36:42.434Z,81.18
2018-11-12T04:37:42.455Z,81.27
2018-11-12T04:38:42.213Z,81.18
2018-11-12T04:39:42.233Z,80.99
2018-11-12T04:40:42.257Z,81.13
2018-11-12T04:41:42.287Z,81.18
2018-11-12T04:42:42.566Z,80.99
2018-11-12T04:43:42.329Z,81.09
2018-11-12T04:44:42.350Z,80.99
2018-11-12T04:45:42.765Z,80.99
2018-11-12T04:46:42.663Z,81.18
2018-11-12T04:47:42.675Z,81.22
2018-11-12T04:48:42.431Z,80.61
2018-11-12T04:49:42.718Z,80.61
2018-11-12T04:50:42.480Z,81.18
2018-11-12T04:51:42.763Z,80.51
2018-11-12T04:52:42.522Z,80.51
2018-11-12T04:53:42.586Z,80.8
2018-11-12T04:54:42.568Z,80.99
2018-11-12T04:55:42.874Z,80.8
2018-11-12T04:56:42.875Z,80.8
2018-11-12T04:57:42.630Z,80.41
2018-11-12T04:58:42.659Z,80.8
2018-11-12T04:59:42.679Z,80.8
2018-11-12T05:00:42.962Z,80.8
2018-11-12T05:01:42.780Z,80.8
2018-11-12T05:02:42.747Z,80.8
2018-11-12T05:03:43.041Z,80.8
2018-11-12T05:04:42.792Z,80.9
2018-11-12T05:05:43.078Z,80.8
2018-11-12T05:06:42.831Z,80.8
2018-11-12T05:07:42.976Z,80.8
2018-11-12T05:08:43.148Z,80.8
2018-11-12T05:09:42.892Z,80.61
2018-11-12T05:10:42.916Z,80.8
2018-11-12T05:11:42.941Z,80.8
2018-11-12T05:12:43.235Z,80.8
2018-11-12T05:13:43.246Z,80.61
2018-11-12T05:14:43.009Z,80.8
2018-11-12T05:15:43.294Z,80.61
2018-11-12T05:16:43.190Z,80.8
2018-11-12T05:17:43.067Z,80.8
2018-11-12T05:18:43.106Z,80.99
2018-11-12T05:19:43.123Z,80.8
2018-11-12T05:20:43.133Z,80.51
2018-11-12T05:21:43.158Z,80.51
2018-11-12T05:22:43.443Z,80.99
2018-11-12T05:23:43.198Z,80.8
2018-11-12T05:24:43.222Z,80.61
2018-11-12T05:25:43.513Z,80.99
2018-11-12T05:26:43.265Z,81.09
2018-11-12T05:27:43.298Z,80.61
2018-11-12T05:28:43.577Z,81.27
2018-11-12T05:29:43.331Z,80.61
2018-11-12T05:30:43.639Z,80.99
2018-11-12T05:31:43.385Z,80.61
2018-11-12T05:32:43.401Z,81.18
2018-11-12T05:33:43.423Z,81.27
2018-11-12T05:34:43.711Z,80.99
2018-11-12T05:35:43.465Z,80.99
2018-11-12T05:36:43.491Z,80.99
2018-11-12T05:37:43.962Z,80.99
2018-11-12T05:38:43.805Z,81.09
2018-11-12T05:39:43.589Z,81.27
2018-11-12T05:40:43.583Z,81.27
2018-11-12T05:41:43.862Z,81.09
2018-11-12T05:42:43.618Z,81.27
2018-11-12T05:43:43.905Z,80.99
2018-11-12T05:44:43.960Z,81.18
2018-11-12T05:45:43.948Z,81.18
2018-11-12T05:46:43.981Z,80.99
2018-11-12T05:47:43.723Z,80.99
2018-11-12T05:48:44.016Z,80.99
2018-11-12T05:49:44.039Z,81.18
2018-11-12T05:50:44.060Z,81.13
2018-11-12T05:51:44.403Z,80.99
2018-11-12T05:52:43.833Z,81.13
2018-11-12T05:53:43.854Z,81.09
2018-11-12T05:54:44.147Z,80.99
2018-11-12T05:55:43.909Z,80.99
2018-11-12T05:56:44.191Z,80.9
2018-11-12T05:57:43.940Z,81.47
2018-11-12T05:58:43.974Z,80.99
2018-11-12T05:59:44.256Z,81.37
2018-11-12T06:00:44.009Z,81.76
2018-11-12T06:01:44.299Z,81.13
2018-11-12T06:02:44.050Z,80.99
2018-11-12T06:03:44.085Z,81.76
2018-11-12T06:04:44.499Z,81.37
2018-11-12T06:05:44.118Z,81.85
2018-11-12T06:06:44.406Z,81.56
2018-11-12T06:07:44.427Z,81.66
2018-11-12T06:08:44.459Z,81.66
2018-11-12T06:09:44.472Z,81.27
2018-11-12T06:10:44.235Z,81.66
2018-11-12T06:11:44.248Z,81.37
2018-11-12T06:12:44.550Z,81.56
2018-11-12T06:13:44.298Z,81.56
2018-11-12T06:14:44.314Z,81.66
2018-11-12T06:15:44.336Z,81.56
2018-11-12T06:16:44.635Z,81.47
2018-11-12T06:17:44.391Z,81.37
2018-11-12T06:18:44.681Z,81.56
2018-11-12T06:19:44.432Z,81.37
2018-11-12T06:20:44.712Z,81.56
2018-11-12T06:21:44.744Z,81.27
2018-11-12T06:22:44.576Z,81.27
2018-11-12T06:23:44.779Z,81.37
2018-11-12T06:24:44.532Z,81.37
2018-11-12T06:25:44.562Z,81.37
2018-11-12T06:26:44.845Z,81.27
2018-11-12T06:27:44.598Z,81.47
2018-11-12T06:28:44.628Z,81.56
2018-11-12T06:29:44.644Z,81.56
2018-11-12T06:30:44.930Z,81.56
2018-11-12T06:31:44.955Z,81.56
2018-11-12T06:32:44.714Z,81.56
2018-11-12T06:33:44.993Z,81.56
2018-11-12T06:34:44.751Z,81.56
2018-11-12T06:35:45.042Z,81.85
2018-11-12T06:36:44.918Z,81.66
2018-11-12T06:37:44.831Z,81.95
2018-11-12T06:38:45.117Z,81.47
2018-11-12T06:39:44.861Z,81.85
2018-11-12T06:40:45.146Z,81.47
2018-11-12T06:41:45.186Z,81.76
2018-11-12T06:42:45.048Z,81.66
2018-11-12T06:43:44.964Z,81.66
2018-11-12T06:44:44.967Z,81.47
2018-11-12T06:45:44.998Z,81.85
2018-11-12T06:46:45.013Z,81.85
2018-11-12T06:47:45.035Z,81.85
2018-11-12T06:48:45.326Z,82.04
2018-11-12T06:49:45.359Z,81.76
2018-11-12T06:50:45.109Z,81.85
2018-11-12T06:51:45.385Z,81.95
2018-11-12T06:52:45.216Z,82.14
2018-11-12T06:53:45.433Z,81.95
2018-11-12T06:54:45.188Z,81.95
2018-11-12T06:55:45.215Z,81.85
2018-11-12T06:56:45.228Z,82.14
2018-11-12T06:57:45.255Z,82.14
2018-11-12T06:58:45.557Z,81.76
2018-11-12T06:59:45.294Z,82.18
2018-11-12T07:00:45.637Z,81.95
2018-11-12T07:01:45.342Z,81.76
2018-11-12T07:02:45.628Z,81.85
2018-11-12T07:03:45.379Z,81.76
2018-11-12T07:04:45.413Z,81.95
2018-11-12T07:05:45.691Z,82.04
2018-11-12T07:06:45.473Z,81.85
2018-11-12T07:07:45.480Z,81.95
2018-11-12T07:08:45.777Z,81.95
2018-11-12T07:09:45.513Z,82.08
2018-11-12T07:10:45.539Z,81.95
2018-11-12T07:11:45.556Z,81.85
2018-11-12T07:12:45.591Z,81.95
2018-11-12T07:13:45.603Z,81.95
2018-11-12T07:14:45.892Z,82.14
2018-11-12T07:15:45.644Z,81.76
2018-11-12T07:16:45.676Z,81.85
2018-11-12T07:17:45.686Z,81.85
2018-11-12T07:18:45.759Z,81.85
2018-11-12T07:19:46.000Z,81.76
2018-11-12T07:20:45.756Z,81.85
2018-11-12T07:21:45.777Z,82.04
2018-11-12T07:22:45.805Z,81.95
2018-11-12T07:23:45.819Z,81.76
2018-11-12T07:24:45.848Z,81.85
2018-11-12T07:25:45.862Z,82.04
2018-11-12T07:26:45.891Z,82.04
2018-11-12T07:27:45.912Z,81.79
2018-11-12T07:28:46.191Z,82.04
2018-11-12T07:29:45.948Z,81.76
2018-11-12T07:30:46.305Z,81.76
2018-11-12T07:31:46.259Z,82.14
2018-11-12T07:32:46.283Z,81.85
2018-11-12T07:33:46.307Z,81.85
2018-11-12T07:34:46.059Z,82.04
2018-11-12T07:35:46.079Z,81.95
2018-11-12T07:36:46.101Z,82.04
2018-11-12T07:37:46.129Z,81.85
2018-11-12T07:38:46.423Z,82.04
2018-11-12T07:39:46.175Z,81.95
2018-11-12T07:40:46.497Z,81.95
2018-11-12T07:41:46.266Z,81.85
2018-11-12T07:42:46.235Z,82.18
2018-11-12T07:43:46.252Z,81.89
2018-11-12T07:44:46.275Z,81.99
2018-11-12T07:45:46.302Z,81.79
2018-11-12T07:46:46.320Z,81.89
2018-11-12T07:47:46.349Z,82.08
2018-11-12T07:48:46.389Z,81.6
2018-11-12T07:49:46.396Z,81.6
2018-11-12T07:50:46.406Z,81.32
2018-11-12T07:51:46.704Z,81.32
2018-11-12T07:52:46.724Z,81.7
2018-11-12T07:53:46.472Z,81.6
2018-11-12T07:54:46.768Z,81.6
2018-11-12T07:55:46.515Z,81.51
2018-11-12T07:56:46.810Z,81.79
2018-11-12T07:57:46.562Z,81.7
2018-11-12T07:58:46.585Z,81.13
2018-11-12T07:59:46.606Z,81.03
2018-11-12T08:00:46.633Z,81.13
2018-11-12T08:01:46.649Z,80.93
2018-11-12T08:02:46.683Z,81.03
2018-11-12T08:03:47.138Z,81.03
2018-11-12T08:04:46.712Z,80.65
2018-11-12T08:05:46.739Z,80.74
2018-11-12T08:06:47.034Z,81.03
2018-11-12T08:07:46.777Z,81.13
2018-11-12T08:08:46.799Z,80.46
2018-11-12T08:09:47.376Z,80.46
2018-11-12T08:10:47.129Z,80.46
2018-11-12T08:11:47.215Z,80.46
2018-11-12T08:12:47.157Z,80.5
2018-11-12T08:13:46.906Z,80.27
2018-11-12T08:14:46.942Z,80.46
2018-11-12T08:15:46.950Z,80.5
2018-11-12T08:16:46.975Z,80.59
2018-11-12T08:17:47.562Z,79.98
2018-11-12T08:18:47.298Z,80.27
2018-11-12T08:19:47.305Z,80.5
2018-11-12T08:20:47.338Z,80.46
2018-11-12T08:21:47.633Z,80.11
2018-11-12T08:22:47.111Z,79.93
2018-11-12T08:23:47.128Z,79.88
2018-11-12T08:24:47.279Z,80.21
2018-11-12T08:25:47.439Z,80.11
2018-11-12T08:26:47.191Z,80.02
2018-11-12T08:27:47.481Z,80.02
2018-11-12T08:28:47.513Z,79.25
2018-11-12T08:29:47.281Z,80.11
2018-11-12T08:30:47.545Z,79.64
2018-11-12T08:31:47.311Z,79.73
2018-11-12T08:32:47.667Z,79.83
2018-11-12T08:33:47.344Z,79.93
2018-11-12T08:34:47.371Z,79.73
2018-11-12T08:35:47.726Z,79.64
2018-11-12T08:36:47.687Z,79.16
2018-11-12T08:37:47.432Z,79.06
2018-11-12T08:38:47.454Z,79.49
2018-11-12T08:39:48.283Z,78.78
2018-11-12T08:40:47.567Z,79.1
2018-11-12T08:41:47.789Z,79.16
2018-11-12T08:42:47.812Z,78.68
2018-11-12T08:43:47.842Z,79.1
2018-11-12T08:44:47.589Z,78.97
2018-11-12T08:45:47.616Z,79
2018-11-12T08:46:47.632Z,78.53
2018-11-12T08:47:47.931Z,78.63
2018-11-12T08:48:47.753Z,78.43
2018-11-12T08:49:48.338Z,78.63
2018-11-12T08:50:47.981Z,78.53
2018-11-12T08:51:48.005Z,78.14
2018-11-12T08:52:47.762Z,78.63
2018-11-12T08:53:47.796Z,78.24
2018-11-12T08:54:47.834Z,77.67
2018-11-12T08:55:48.378Z,78.05
2018-11-12T08:56:47.846Z,78.63
2018-11-12T08:57:47.875Z,78.53
2018-11-12T08:58:48.156Z,78.63
2018-11-12T08:59:48.356Z,78.72
2018-11-12T09:00:48.257Z,78.72
2018-11-12T09:01:47.959Z,78.63
2018-11-12T09:02:48.296Z,78.72
2018-11-12T09:03:48.277Z,78.81
2018-11-12T09:04:48.296Z,78.14
2018-11-12T09:05:48.063Z,78.05
2018-11-12T09:06:48.072Z,78.14
2018-11-12T09:07:48.091Z,78.24
2018-11-12T09:08:48.382Z,78.14
2018-11-12T09:09:48.408Z,78.24
2018-11-12T09:10:48.425Z,78.28
2018-11-12T09:11:48.178Z,77.86
2018-11-12T09:12:48.207Z,77.76
2018-11-12T09:13:49.179Z,77.9
2018-11-12T09:14:48.510Z,77.8
2018-11-12T09:15:48.646Z,77.76
2018-11-12T09:16:48.288Z,77.8
2018-11-12T09:17:48.313Z,77.7
2018-11-12T09:18:48.333Z,77.99
2018-11-12T09:19:48.358Z,77.7
2018-11-12T09:20:48.381Z,77.04
2018-11-12T09:21:48.668Z,77.33
2018-11-12T09:22:48.687Z,77.51
2018-11-12T09:23:48.723Z,77.8
2018-11-12T09:24:48.464Z,77.61
2018-11-12T09:25:48.487Z,77.23
2018-11-12T09:26:48.521Z,77.23
2018-11-12T09:27:48.816Z,77.33
2018-11-12T09:28:48.818Z,77.23
2018-11-12T09:29:48.899Z,77.13
2018-11-12T09:30:51.960Z,77.04
2018-11-12T09:31:48.887Z,76.84
2018-11-12T09:32:48.736Z,76.84
2018-11-12T09:33:49.044Z,76.94
2018-11-12T09:34:48.959Z,76.56
2018-11-12T09:35:48.720Z,76.84
2018-11-12T09:36:48.778Z,76.75
2018-11-12T09:37:48.751Z,76.84
2018-11-12T09:38:48.889Z,76.94
2018-11-12T09:39:48.797Z,76.84
2018-11-12T09:40:49.085Z,76.84
2018-11-12T09:41:48.840Z,76.84
2018-11-12T09:42:48.877Z,76.37
2018-11-12T09:43:48.926Z,76.56
2018-11-12T09:44:48.922Z,76.79
2018-11-12T09:45:49.283Z,76.46
2018-11-12T09:46:48.961Z,76.5
2018-11-12T09:47:49.433Z,76.02
2018-11-12T09:48:49.400Z,75.98
2018-11-12T09:49:49.290Z,76.21
2018-11-12T09:50:49.357Z,76.21
2018-11-12T09:51:49.068Z,76.02
2018-11-12T09:52:49.095Z,75.64
2018-11-12T09:53:49.279Z,76.02
2018-11-12T09:54:49.191Z,76.12
2018-11-12T09:55:49.163Z,76.12
2018-11-12T09:56:49.174Z,76.02
2018-11-12T09:57:49.194Z,76.02
2018-11-12T09:58:49.219Z,76.12
2018-11-12T09:59:49.519Z,76.21
2018-11-12T10:00:50.373Z,76.12
2018-11-12T10:01:50.758Z,75.73
2018-11-12T10:02:50.136Z,76.02
2018-11-12T10:03:52.396Z,76.18
2018-11-12T10:04:50.900Z,76.02
2018-11-12T10:05:50.374Z,76.5
2018-11-12T10:06:54.040Z,76.02
2018-11-12T10:07:51.434Z,76.37
2018-11-12T10:08:55.468Z,76.4
2018-11-12T10:09:57.100Z,76.18
2018-11-12T10:10:51.267Z,76.37
2018-11-12T10:11:51.951Z,76.37
2018-11-12T10:12:55.180Z,76.56
2018-11-12T10:13:57.598Z,76.65
2018-11-12T10:14:52.898Z,76.69
2018-11-12T10:15:52.264Z,77.08
2018-11-12T10:16:57.926Z,76.56
2018-11-12T10:17:52.509Z,76.89
2018-11-12T10:18:49.673Z,76.84
2018-11-12T10:19:49.696Z,76.6
2018-11-12T10:20:49.718Z,77.23
2018-11-12T10:21:49.732Z,76.56
2018-11-12T10:22:50.023Z,76.5
2018-11-12T10:23:50.041Z,76.69
2018-11-12T10:24:49.808Z,76.89
2018-11-12T10:25:49.829Z,76.89
2018-11-12T10:26:49.844Z,76.98
2018-11-12T10:27:49.864Z,76.46
2018-11-12T10:28:49.886Z,76.69
2018-11-12T10:29:50.179Z,76.5
2018-11-12T10:30:49.939Z,76.4
2018-11-12T10:31:50.221Z,76.4
2018-11-12T10:32:50.243Z,76.4
2018-11-12T10:33:50.284Z,76.31
2018-11-12T10:34:50.029Z,76.02
2018-11-12T10:35:50.044Z,75.93
2018-11-12T10:36:50.334Z,75.93
2018-11-12T10:37:50.097Z,75.93
2018-11-12T10:38:50.119Z,76.4
2018-11-12T10:39:50.482Z,75.93
2018-11-12T10:40:50.227Z,76.5
2018-11-12T10:41:50.180Z,76.5
2018-11-12T10:42:50.307Z,76.6
2018-11-12T10:43:50.493Z,76.4
2018-11-12T10:44:50.248Z,76.5
2018-11-12T10:45:50.277Z,76.31
2018-11-12T10:46:50.572Z,76.5
2018-11-12T10:47:50.688Z,76.31
2018-11-12T10:48:50.347Z,76.5
2018-11-12T10:49:50.361Z,76.31
2018-11-12T10:50:56.375Z,76.6
2018-11-12T10:51:50.677Z,76.69
2018-11-12T10:52:50.695Z,76.5
2018-11-12T10:53:53.168Z,76.79
2018-11-12T10:55:04.892Z,76.31
2018-11-12T10:55:50.572Z,76.4
2018-11-12T10:56:50.791Z,76.5
2018-11-12T10:57:50.539Z,76.4
2018-11-12T10:58:50.562Z,76.6
2018-11-12T10:59:50.762Z,76.5
2018-11-12T11:00:51.061Z,75.93
2018-11-12T11:01:50.906Z,75.93
2018-11-12T11:02:50.923Z,75.83
2018-11-12T11:03:50.955Z,75.73
2018-11-12T11:04:50.962Z,76.25
2018-11-12T11:05:50.721Z,75.48
2018-11-12T11:06:51.011Z,75.29
2018-11-12T11:07:51.035Z,75.58
2018-11-12T11:08:50.789Z,75.48
2018-11-12T11:09:50.809Z,75.29
2018-11-12T11:10:50.838Z,75.29
2018-11-12T11:11:50.861Z,75.2
2018-11-12T11:12:50.876Z,75.39
2018-11-12T11:13:51.281Z,75.2
2018-11-12T11:14:50.922Z,75.01
2018-11-12T11:15:50.943Z,75.39
2018-11-12T11:16:50.973Z,75.2
2018-11-12T11:17:50.989Z,75.01
2018-11-12T11:18:51.282Z,75.2
2018-11-12T11:19:51.519Z,75.1
2018-11-12T11:20:51.332Z,74.62
2018-11-12T11:21:51.086Z,74.62
2018-11-12T11:22:51.103Z,75.39
2018-11-12T11:23:51.404Z,75.1
2018-11-12T11:24:51.415Z,75.29
2018-11-12T11:25:51.179Z,74.82
2018-11-12T11:26:51.192Z,75.39
2018-11-12T11:27:51.491Z,75.1
2018-11-12T11:28:51.239Z,75.1
2018-11-12T11:29:51.259Z,75.2
2018-11-12T11:30:51.323Z,75.39
2018-11-12T11:31:51.764Z,75.48
2018-11-12T11:32:51.322Z,75.48
2018-11-12T11:33:51.626Z,75.48
2018-11-12T11:34:51.637Z,75.2
2018-11-12T11:35:51.396Z,75.2
2018-11-12T11:36:51.690Z,75.39
2018-11-12T11:37:51.778Z,75.2
2018-11-12T11:38:51.466Z,75.1
2018-11-12T11:39:51.753Z,75.39
2018-11-12T11:40:51.632Z,75.1
2018-11-12T11:41:51.525Z,75.2
2018-11-12T11:42:51.561Z,74.82
2018-11-12T11:43:51.607Z,75.39
2018-11-12T11:44:51.593Z,74.72
2018-11-12T11:45:51.618Z,74.52
2018-11-12T11:46:51.918Z,74.52
2018-11-12T11:47:52.450Z,74.62
2018-11-12T11:48:51.755Z,74.82
2018-11-12T11:49:51.713Z,74.52
2018-11-12T11:50:51.730Z,74.33
2018-11-12T11:51:52.023Z,74.15
2018-11-12T11:52:51.778Z,74.33
2018-11-12T11:53:51.808Z,74.47
2018-11-12T11:54:51.822Z,73.99
2018-11-12T11:55:52.114Z,74.08
2018-11-12T11:56:52.070Z,74.08
2018-11-12T11:57:51.895Z,73.99
2018-11-12T11:58:51.920Z,74.37
2018-11-12T11:59:51.942Z,73.99
2018-11-12T12:00:51.981Z,74.18
2018-11-12T12:01:51.981Z,74.57
2018-11-12T12:02:52.068Z,74.27
2018-11-12T12:03:52.026Z,74.37
2018-11-12T12:04:52.314Z,74.47
2018-11-12T12:05:52.074Z,74.18
2018-11-12T12:06:52.361Z,74.47
2018-11-12T12:07:52.392Z,74.37
2018-11-12T12:08:52.254Z,74.27
2018-11-12T12:09:52.439Z,73.7
2018-11-12T12:10:52.185Z,73.61
2018-11-12T12:11:52.474Z,73.99
2018-11-12T12:12:52.519Z,74.27
2018-11-12T12:13:52.517Z,73.99
2018-11-12T12:14:52.276Z,74.37
2018-11-12T12:15:52.307Z,74.27
2018-11-12T12:16:52.325Z,74.37
2018-11-12T12:17:52.343Z,74.47
2018-11-12T12:18:52.637Z,74.47
2018-11-12T12:19:52.444Z,74.47
2018-11-12T12:20:52.422Z,74.27
2018-11-12T12:21:52.438Z,74.37
2018-11-12T12:22:52.467Z,74.37
2018-11-12T12:23:52.763Z,74.37
2018-11-12T12:24:53.018Z,74.47
2018-11-12T12:25:53.344Z,74.57
2018-11-12T12:26:52.551Z,74.76
2018-11-12T12:27:52.854Z,74.47
2018-11-12T12:28:52.861Z,74.66
2018-11-12T12:29:52.626Z,74.76
2018-11-12T12:30:52.910Z,74.66
2018-11-12T12:31:52.669Z,74.47
2018-11-12T12:32:52.954Z,75.04
2018-11-12T12:33:52.708Z,74.85
2018-11-12T12:34:52.734Z,74.66
2018-11-12T12:35:52.834Z,74.95
2018-11-12T12:36:52.921Z,74.95
2018-11-12T12:37:53.077Z,74.47
2018-11-12T12:38:53.094Z,74.27
2018-11-12T12:39:52.849Z,74.66
2018-11-12T12:40:52.876Z,74.57
2018-11-12T12:41:53.160Z,74.37
2018-11-12T12:42:52.931Z,74.47
2018-11-12T12:43:53.212Z,74.47
2018-11-12T12:44:53.079Z,73.74
2018-11-12T12:45:53.096Z,73.83
2018-11-12T12:46:53.275Z,73.74
2018-11-12T12:47:53.028Z,73.83
2018-11-12T12:48:53.319Z,73.74
2018-11-12T12:49:53.347Z,73.45
2018-11-12T12:50:53.390Z,73.2
2018-11-12T12:51:53.119Z,72.78
2018-11-12T12:52:53.152Z,72.59
2018-11-12T12:53:53.435Z,72.81
2018-11-12T12:54:53.189Z,72.63
2018-11-12T12:55:53.396Z,72.81
2018-11-12T12:56:53.508Z,72.43
2018-11-12T12:57:53.526Z,72.53